sensor_id;sensor_type;location;lat;lon;timestamp;P1;durP1;ratioP1;P2;durP2;ratioP2
14975;SDS011;7584;60.468;25.126;2022-08-14T00:01:38;6.90;;;4.07;;
14975;SDS011;7584;60.468;25.126;2022-08-14T00:04:03;5.77;;;3.70;;
14975;SDS011;7584;60.468;25.126;2022-08-14T00:06:28;5.03;;;3.93;;
14975;SDS011;7584;60.468;25.126;2022-08-14T00:08:54;6.03;;;4.33;;
14975;SDS011;7584;60.468;25.126;2022-08-14T00:11:20;4.97;;;4.17;;
14975;SDS011;7584;60.468;25.126;2022-08-14T00:13:45;6.97;;;4.27;;
14975;SDS011;7584;60.468;25.126;2022-08-14T00:16:12;6.37;;;4.23;;
14975;SDS011;7584;60.468;25.126;2022-08-14T00:18:38;6.13;;;3.97;;
14975;SDS011;7584;60.468;25.126;2022-08-14T00:21:04;4.30;;;3.90;;
14975;SDS011;7584;60.468;25.126;2022-08-14T00:23:29;5.97;;;4.17;;
14975;SDS011;7584;60.468;25.126;2022-08-14T00:25:55;10.77;;;4.67;;
14975;SDS011;7584;60.468;25.126;2022-08-14T00:28:21;6.20;;;4.13;;
14975;SDS011;7584;60.468;25.126;2022-08-14T00:30:51;6.60;;;3.90;;
14975;SDS011;7584;60.468;25.126;2022-08-14T00:33:16;6.60;;;4.07;;
14975;SDS011;7584;60.468;25.126;2022-08-14T00:35:42;5.23;;;3.90;;
14975;SDS011;7584;60.468;25.126;2022-08-14T00:38:07;5.87;;;3.53;;
14975;SDS011;7584;60.468;25.126;2022-08-14T00:40:32;4.73;;;3.83;;
14975;SDS011;7584;60.468;25.126;2022-08-14T00:42:57;5.87;;;4.17;;
14975;SDS011;7584;60.468;25.126;2022-08-14T00:45:23;5.33;;;4.07;;
14975;SDS011;7584;60.468;25.126;2022-08-14T00:47:48;4.63;;;3.83;;
14975;SDS011;7584;60.468;25.126;2022-08-14T00:50:15;6.57;;;3.97;;
14975;SDS011;7584;60.468;25.126;2022-08-14T00:52:42;4.20;;;3.80;;
14975;SDS011;7584;60.468;25.126;2022-08-14T00:55:09;4.57;;;3.70;;
14975;SDS011;7584;60.468;25.126;2022-08-14T00:57:36;4.40;;;3.80;;
14975;SDS011;7584;60.468;25.126;2022-08-14T01:00:03;4.30;;;3.33;;
14975;SDS011;7584;60.468;25.126;2022-08-14T01:02:29;7.90;;;3.47;;
14975;SDS011;7584;60.468;25.126;2022-08-14T01:04:55;8.07;;;3.63;;
14975;SDS011;7584;60.468;25.126;2022-08-14T01:07:22;6.00;;;3.93;;
14975;SDS011;7584;60.468;25.126;2022-08-14T01:09:58;6.33;;;3.77;;
14975;SDS011;7584;60.468;25.126;2022-08-14T01:12:26;6.43;;;3.47;;
14975;SDS011;7584;60.468;25.126;2022-08-14T01:14:52;4.00;;;3.60;;
14975;SDS011;7584;60.468;25.126;2022-08-14T01:17:21;7.83;;;3.77;;
14975;SDS011;7584;60.468;25.126;2022-08-14T01:19:47;4.47;;;3.23;;
14975;SDS011;7584;60.468;25.126;2022-08-14T01:22:31;6.50;;;3.60;;
14975;SDS011;7584;60.468;25.126;2022-08-14T01:24:57;4.97;;;4.00;;
14975;SDS011;7584;60.468;25.126;2022-08-14T01:27:22;5.70;;;3.10;;
14975;SDS011;7584;60.468;25.126;2022-08-14T01:29:50;6.13;;;3.43;;
14975;SDS011;7584;60.468;25.126;2022-08-14T01:32:16;3.90;;;3.47;;
14975;SDS011;7584;60.468;25.126;2022-08-14T01:34:43;4.50;;;3.77;;
14975;SDS011;7584;60.468;25.126;2022-08-14T01:37:08;4.73;;;3.47;;
14975;SDS011;7584;60.468;25.126;2022-08-14T01:39:34;6.40;;;3.77;;
14975;SDS011;7584;60.468;25.126;2022-08-14T01:42:00;4.67;;;3.30;;
14975;SDS011;7584;60.468;25.126;2022-08-14T01:44:27;3.70;;;3.20;;
14975;SDS011;7584;60.468;25.126;2022-08-14T01:46:56;5.77;;;3.90;;
14975;SDS011;7584;60.468;25.126;2022-08-14T01:49:23;5.93;;;3.50;;
14975;SDS011;7584;60.468;25.126;2022-08-14T01:51:48;4.77;;;3.53;;
14975;SDS011;7584;60.468;25.126;2022-08-14T01:54:17;8.53;;;4.30;;
14975;SDS011;7584;60.468;25.126;2022-08-14T01:56:45;8.80;;;4.27;;
14975;SDS011;7584;60.468;25.126;2022-08-14T02:01:43;5.87;;;3.50;;
14975;SDS011;7584;60.468;25.126;2022-08-14T02:04:09;4.33;;;3.33;;
14975;SDS011;7584;60.468;25.126;2022-08-14T02:06:35;5.00;;;3.70;;
14975;SDS011;7584;60.468;25.126;2022-08-14T02:09:03;4.97;;;3.53;;
14975;SDS011;7584;60.468;25.126;2022-08-14T02:11:28;5.90;;;3.43;;
14975;SDS011;7584;60.468;25.126;2022-08-14T02:13:55;3.97;;;3.57;;
14975;SDS011;7584;60.468;25.126;2022-08-14T02:16:23;4.20;;;3.27;;
14975;SDS011;7584;60.468;25.126;2022-08-14T02:18:50;4.87;;;3.53;;
14975;SDS011;7584;60.468;25.126;2022-08-14T02:21:15;4.90;;;4.33;;
14975;SDS011;7584;60.468;25.126;2022-08-14T02:23:43;6.53;;;3.33;;
14975;SDS011;7584;60.468;25.126;2022-08-14T02:26:18;3.33;;;3.00;;
14975;SDS011;7584;60.468;25.126;2022-08-14T02:28:44;5.53;;;3.60;;
14975;SDS011;7584;60.468;25.126;2022-08-14T02:31:11;5.27;;;4.10;;
14975;SDS011;7584;60.468;25.126;2022-08-14T02:33:36;4.10;;;3.27;;
14975;SDS011;7584;60.468;25.126;2022-08-14T02:36:02;4.07;;;3.67;;
14975;SDS011;7584;60.468;25.126;2022-08-14T02:38:28;3.57;;;3.17;;
14975;SDS011;7584;60.468;25.126;2022-08-14T02:40:54;5.70;;;3.40;;
14975;SDS011;7584;60.468;25.126;2022-08-14T02:43:20;7.27;;;3.30;;
14975;SDS011;7584;60.468;25.126;2022-08-14T02:45:46;4.53;;;3.67;;
14975;SDS011;7584;60.468;25.126;2022-08-14T02:48:12;3.87;;;3.57;;
14975;SDS011;7584;60.468;25.126;2022-08-14T02:50:37;4.47;;;3.43;;
14975;SDS011;7584;60.468;25.126;2022-08-14T02:53:03;5.00;;;3.47;;
14975;SDS011;7584;60.468;25.126;2022-08-14T02:55:28;5.57;;;3.43;;
14975;SDS011;7584;60.468;25.126;2022-08-14T02:57:54;7.67;;;3.63;;
14975;SDS011;7584;60.468;25.126;2022-08-14T03:00:21;6.10;;;3.53;;
14975;SDS011;7584;60.468;25.126;2022-08-14T03:02:47;4.00;;;3.50;;
14975;SDS011;7584;60.468;25.126;2022-08-14T03:05:14;5.37;;;3.97;;
14975;SDS011;7584;60.468;25.126;2022-08-14T03:07:40;4.93;;;4.10;;
14975;SDS011;7584;60.468;25.126;2022-08-14T03:10:05;3.70;;;3.27;;
14975;SDS011;7584;60.468;25.126;2022-08-14T03:12:31;4.27;;;3.87;;
14975;SDS011;7584;60.468;25.126;2022-08-14T03:14:56;7.27;;;3.73;;
14975;SDS011;7584;60.468;25.126;2022-08-14T03:17:22;4.70;;;3.80;;
14975;SDS011;7584;60.468;25.126;2022-08-14T03:19:48;4.53;;;3.50;;
14975;SDS011;7584;60.468;25.126;2022-08-14T03:22:13;3.97;;;3.57;;
14975;SDS011;7584;60.468;25.126;2022-08-14T03:24:39;4.07;;;3.67;;
14975;SDS011;7584;60.468;25.126;2022-08-14T03:27:04;6.63;;;3.73;;
14975;SDS011;7584;60.468;25.126;2022-08-14T03:29:30;5.93;;;3.97;;
14975;SDS011;7584;60.468;25.126;2022-08-14T03:31:56;10.53;;;3.60;;
14975;SDS011;7584;60.468;25.126;2022-08-14T03:34:21;5.20;;;3.70;;
14975;SDS011;7584;60.468;25.126;2022-08-14T03:36:47;6.10;;;3.63;;
14975;SDS011;7584;60.468;25.126;2022-08-14T03:39:17;4.67;;;3.37;;
14975;SDS011;7584;60.468;25.126;2022-08-14T03:41:42;4.20;;;3.80;;
14975;SDS011;7584;60.468;25.126;2022-08-14T03:44:08;5.90;;;3.73;;
14975;SDS011;7584;60.468;25.126;2022-08-14T03:46:34;4.20;;;3.20;;
14975;SDS011;7584;60.468;25.126;2022-08-14T03:49:00;4.57;;;3.33;;
14975;SDS011;7584;60.468;25.126;2022-08-14T03:51:29;3.73;;;3.27;;
14975;SDS011;7584;60.468;25.126;2022-08-14T03:53:55;5.63;;;3.77;;
14975;SDS011;7584;60.468;25.126;2022-08-14T03:56:21;5.53;;;3.87;;
14975;SDS011;7584;60.468;25.126;2022-08-14T03:58:47;4.07;;;3.33;;
14975;SDS011;7584;60.468;25.126;2022-08-14T04:01:17;5.90;;;3.40;;
14975;SDS011;7584;60.468;25.126;2022-08-14T04:03:44;6.37;;;3.60;;
14975;SDS011;7584;60.468;25.126;2022-08-14T04:06:09;4.70;;;3.50;;
14975;SDS011;7584;60.468;25.126;2022-08-14T04:08:35;5.93;;;4.27;;
14975;SDS011;7584;60.468;25.126;2022-08-14T04:11:01;5.17;;;3.60;;
14975;SDS011;7584;60.468;25.126;2022-08-14T04:13:26;5.40;;;4.20;;
14975;SDS011;7584;60.468;25.126;2022-08-14T04:15:51;4.40;;;4.00;;
14975;SDS011;7584;60.468;25.126;2022-08-14T04:18:17;6.63;;;4.10;;
14975;SDS011;7584;60.468;25.126;2022-08-14T04:20:42;4.30;;;3.90;;
14975;SDS011;7584;60.468;25.126;2022-08-14T04:23:08;4.27;;;3.70;;
14975;SDS011;7584;60.468;25.126;2022-08-14T04:25:33;4.40;;;4.00;;
14975;SDS011;7584;60.468;25.126;2022-08-14T04:28:00;6.77;;;3.90;;
14975;SDS011;7584;60.468;25.126;2022-08-14T04:30:27;6.17;;;4.90;;
14975;SDS011;7584;60.468;25.126;2022-08-14T04:32:53;5.73;;;5.00;;
14975;SDS011;7584;60.468;25.126;2022-08-14T04:35:19;7.70;;;6.37;;
14975;SDS011;7584;60.468;25.126;2022-08-14T04:37:44;7.40;;;6.07;;
14975;SDS011;7584;60.468;25.126;2022-08-14T04:40:28;13.40;;;8.60;;
14975;SDS011;7584;60.468;25.126;2022-08-14T04:43:12;17.23;;;10.13;;
14975;SDS011;7584;60.468;25.126;2022-08-14T04:45:56;29.87;;;10.27;;
14975;SDS011;7584;60.468;25.126;2022-08-14T04:48:21;33.40;;;8.90;;
14975;SDS011;7584;60.468;25.126;2022-08-14T04:50:49;29.53;;;8.03;;
14975;SDS011;7584;60.468;25.126;2022-08-14T04:53:20;28.07;;;8.07;;
14975;SDS011;7584;60.468;25.126;2022-08-14T04:55:46;37.80;;;8.40;;
14975;SDS011;7584;60.468;25.126;2022-08-14T04:58:12;20.97;;;7.87;;
14975;SDS011;7584;60.468;25.126;2022-08-14T05:00:38;20.17;;;7.93;;
14975;SDS011;7584;60.468;25.126;2022-08-14T05:03:05;17.30;;;7.87;;
14975;SDS011;7584;60.468;25.126;2022-08-14T05:05:30;18.10;;;7.60;;
14975;SDS011;7584;60.468;25.126;2022-08-14T05:08:02;20.60;;;7.80;;
14975;SDS011;7584;60.468;25.126;2022-08-14T05:10:30;14.30;;;6.53;;
14975;SDS011;7584;60.468;25.126;2022-08-14T05:12:55;14.93;;;6.93;;
14975;SDS011;7584;60.468;25.126;2022-08-14T05:15:21;10.48;;;6.22;;
14975;SDS011;7584;60.468;25.126;2022-08-14T05:17:46;8.50;;;6.18;;
14975;SDS011;7584;60.468;25.126;2022-08-14T05:20:13;23.52;;;6.60;;
14975;SDS011;7584;60.468;25.126;2022-08-14T05:22:38;15.88;;;5.60;;
14975;SDS011;7584;60.468;25.126;2022-08-14T05:25:03;20.05;;;6.28;;
14975;SDS011;7584;60.468;25.126;2022-08-14T05:27:29;19.65;;;6.90;;
14975;SDS011;7584;60.468;25.126;2022-08-14T05:29:54;17.30;;;7.05;;
14975;SDS011;7584;60.468;25.126;2022-08-14T05:32:20;17.33;;;6.65;;
14975;SDS011;7584;60.468;25.126;2022-08-14T05:34:46;19.35;;;6.57;;
14975;SDS011;7584;60.468;25.126;2022-08-14T05:37:11;11.60;;;6.70;;
14975;SDS011;7584;60.468;25.126;2022-08-14T05:39:37;9.50;;;5.47;;
14975;SDS011;7584;60.468;25.126;2022-08-14T05:42:03;8.57;;;5.35;;
14975;SDS011;7584;60.468;25.126;2022-08-14T05:44:28;9.52;;;5.10;;
14975;SDS011;7584;60.468;25.126;2022-08-14T05:46:54;6.03;;;5.43;;
14975;SDS011;7584;60.468;25.126;2022-08-14T05:49:19;5.20;;;4.38;;
14975;SDS011;7584;60.468;25.126;2022-08-14T05:51:44;7.30;;;4.40;;
14975;SDS011;7584;60.468;25.126;2022-08-14T05:54:10;5.55;;;4.95;;
14975;SDS011;7584;60.468;25.126;2022-08-14T05:56:36;7.47;;;4.75;;
14975;SDS011;7584;60.468;25.126;2022-08-14T05:59:01;10.35;;;5.30;;
14975;SDS011;7584;60.468;25.126;2022-08-14T06:01:27;8.98;;;5.00;;
14975;SDS011;7584;60.468;25.126;2022-08-14T06:03:52;6.15;;;5.07;;
14975;SDS011;7584;60.468;25.126;2022-08-14T06:06:18;6.15;;;5.55;;
14975;SDS011;7584;60.468;25.126;2022-08-14T06:08:43;7.43;;;6.40;;
14975;SDS011;7584;60.468;25.126;2022-08-14T06:11:09;5.65;;;5.00;;
14975;SDS011;7584;60.468;25.126;2022-08-14T06:13:38;6.13;;;5.53;;
14975;SDS011;7584;60.468;25.126;2022-08-14T06:16:04;7.55;;;5.97;;
14975;SDS011;7584;60.468;25.126;2022-08-14T06:18:30;6.65;;;6.00;;
14975;SDS011;7584;60.468;25.126;2022-08-14T06:20:56;5.85;;;5.35;;
14975;SDS011;7584;60.468;25.126;2022-08-14T06:23:21;8.30;;;6.10;;
14975;SDS011;7584;60.468;25.126;2022-08-14T06:25:46;6.05;;;5.40;;
14975;SDS011;7584;60.468;25.126;2022-08-14T06:28:18;7.60;;;6.55;;
14975;SDS011;7584;60.468;25.126;2022-08-14T06:30:44;7.80;;;6.05;;
14975;SDS011;7584;60.468;25.126;2022-08-14T06:33:09;7.20;;;6.47;;
14975;SDS011;7584;60.468;25.126;2022-08-14T06:35:34;8.02;;;7.15;;
14975;SDS011;7584;60.468;25.126;2022-08-14T06:38:00;7.57;;;6.78;;
14975;SDS011;7584;60.468;25.126;2022-08-14T06:40:26;8.10;;;7.30;;
14975;SDS011;7584;60.468;25.126;2022-08-14T06:42:53;6.80;;;6.20;;
14975;SDS011;7584;60.468;25.126;2022-08-14T06:45:18;6.95;;;6.25;;
14975;SDS011;7584;60.468;25.126;2022-08-14T06:47:44;8.75;;;6.97;;
14975;SDS011;7584;60.468;25.126;2022-08-14T06:50:11;7.40;;;6.60;;
14975;SDS011;7584;60.468;25.126;2022-08-14T06:52:37;7.55;;;6.85;;
14975;SDS011;7584;60.468;25.126;2022-08-14T06:55:04;9.32;;;6.72;;
14975;SDS011;7584;60.468;25.126;2022-08-14T06:57:40;8.38;;;6.93;;
14975;SDS011;7584;60.468;25.126;2022-08-14T07:00:07;7.25;;;6.55;;
14975;SDS011;7584;60.468;25.126;2022-08-14T07:02:33;7.28;;;6.57;;
14975;SDS011;7584;60.468;25.126;2022-08-14T07:05:16;7.45;;;6.75;;
14975;SDS011;7584;60.468;25.126;2022-08-14T07:08:00;7.97;;;6.18;;
14975;SDS011;7584;60.468;25.126;2022-08-14T07:10:26;8.80;;;6.40;;
14975;SDS011;7584;60.468;25.126;2022-08-14T07:12:51;8.25;;;6.80;;
14975;SDS011;7584;60.468;25.126;2022-08-14T07:15:17;7.57;;;6.55;;
14975;SDS011;7584;60.468;25.126;2022-08-14T07:17:43;7.57;;;6.30;;
14975;SDS011;7584;60.468;25.126;2022-08-14T07:20:08;8.68;;;6.97;;
14975;SDS011;7584;60.468;25.126;2022-08-14T07:22:34;8.93;;;7.07;;
14975;SDS011;7584;60.468;25.126;2022-08-14T07:24:59;7.03;;;6.30;;
14975;SDS011;7584;60.468;25.126;2022-08-14T07:27:24;8.10;;;7.30;;
14975;SDS011;7584;60.468;25.126;2022-08-14T07:29:50;6.97;;;6.38;;
14975;SDS011;7584;60.468;25.126;2022-08-14T07:32:15;6.57;;;5.95;;
14975;SDS011;7584;60.468;25.126;2022-08-14T07:34:41;7.00;;;6.40;;
14975;SDS011;7584;60.468;25.126;2022-08-14T07:37:07;7.75;;;7.03;;
14975;SDS011;7584;60.468;25.126;2022-08-14T07:39:32;6.60;;;5.80;;
14975;SDS011;7584;60.468;25.126;2022-08-14T07:41:57;7.88;;;6.38;;
14975;SDS011;7584;60.468;25.126;2022-08-14T07:44:23;9.23;;;5.88;;
14975;SDS011;7584;60.468;25.126;2022-08-14T07:46:48;7.50;;;5.80;;
14975;SDS011;7584;60.468;25.126;2022-08-14T07:49:13;7.53;;;6.35;;
14975;SDS011;7584;60.468;25.126;2022-08-14T07:51:38;8.82;;;5.70;;
14975;SDS011;7584;60.468;25.126;2022-08-14T07:54:05;7.82;;;6.20;;
14975;SDS011;7584;60.468;25.126;2022-08-14T07:56:31;6.97;;;6.15;;
14975;SDS011;7584;60.468;25.126;2022-08-14T07:58:56;6.88;;;6.03;;
14975;SDS011;7584;60.468;25.126;2022-08-14T08:01:22;7.38;;;5.80;;
14975;SDS011;7584;60.468;25.126;2022-08-14T08:03:48;7.13;;;5.88;;
14975;SDS011;7584;60.468;25.126;2022-08-14T08:06:14;6.10;;;5.43;;
14975;SDS011;7584;60.468;25.126;2022-08-14T08:08:41;9.75;;;5.68;;
14975;SDS011;7584;60.468;25.126;2022-08-14T08:11:06;5.90;;;5.40;;
14975;SDS011;7584;60.468;25.126;2022-08-14T08:13:33;5.38;;;4.85;;
14975;SDS011;7584;60.468;25.126;2022-08-14T08:15:59;5.45;;;4.93;;
14975;SDS011;7584;60.468;25.126;2022-08-14T08:18:26;7.47;;;4.97;;
14975;SDS011;7584;60.468;25.126;2022-08-14T08:20:53;6.80;;;5.05;;
14975;SDS011;7584;60.468;25.126;2022-08-14T08:23:20;7.00;;;4.72;;
14975;SDS011;7584;60.468;25.126;2022-08-14T08:25:46;6.78;;;4.68;;
14975;SDS011;7584;60.468;25.126;2022-08-14T08:28:17;5.80;;;4.47;;
14975;SDS011;7584;60.468;25.126;2022-08-14T08:30:46;5.80;;;4.60;;
14975;SDS011;7584;60.468;25.126;2022-08-14T08:33:11;5.93;;;5.18;;
14975;SDS011;7584;60.468;25.126;2022-08-14T08:35:38;5.90;;;5.32;;
14975;SDS011;7584;60.468;25.126;2022-08-14T08:38:04;5.55;;;5.05;;
14975;SDS011;7584;60.468;25.126;2022-08-14T08:40:32;5.20;;;4.70;;
14975;SDS011;7584;60.468;25.126;2022-08-14T08:43:05;6.85;;;4.60;;
14975;SDS011;7584;60.468;25.126;2022-08-14T08:45:31;5.85;;;4.72;;
14975;SDS011;7584;60.468;25.126;2022-08-14T08:47:56;7.72;;;4.68;;
14975;SDS011;7584;60.468;25.126;2022-08-14T08:50:23;4.93;;;4.43;;
14975;SDS011;7584;60.468;25.126;2022-08-14T08:52:50;5.45;;;4.53;;
14975;SDS011;7584;60.468;25.126;2022-08-14T08:55:22;5.85;;;4.22;;
14975;SDS011;7584;60.468;25.126;2022-08-14T08:57:52;6.00;;;3.95;;
14975;SDS011;7584;60.468;25.126;2022-08-14T09:00:17;6.75;;;3.63;;
14975;SDS011;7584;60.468;25.126;2022-08-14T09:02:59;5.40;;;3.78;;
14975;SDS011;7584;60.468;25.126;2022-08-14T09:05:27;4.10;;;3.70;;
14975;SDS011;7584;60.468;25.126;2022-08-14T09:07:52;4.47;;;3.60;;
14975;SDS011;7584;60.468;25.126;2022-08-14T09:10:18;4.53;;;3.80;;
14975;SDS011;7584;60.468;25.126;2022-08-14T09:12:43;5.75;;;4.20;;
14975;SDS011;7584;60.468;25.126;2022-08-14T09:15:09;4.97;;;4.10;;
14975;SDS011;7584;60.468;25.126;2022-08-14T09:17:35;5.28;;;4.47;;
14975;SDS011;7584;60.468;25.126;2022-08-14T09:20:01;4.72;;;3.90;;
14975;SDS011;7584;60.468;25.126;2022-08-14T09:22:26;7.03;;;4.20;;
14975;SDS011;7584;60.468;25.126;2022-08-14T09:24:52;5.80;;;3.80;;
14975;SDS011;7584;60.468;25.126;2022-08-14T09:27:18;6.03;;;3.97;;
14975;SDS011;7584;60.468;25.126;2022-08-14T09:29:43;4.20;;;3.65;;
14975;SDS011;7584;60.468;25.126;2022-08-14T09:32:08;4.47;;;3.60;;
14975;SDS011;7584;60.468;25.126;2022-08-14T09:34:45;3.70;;;3.38;;
14975;SDS011;7584;60.468;25.126;2022-08-14T09:47:05;5.45;;;3.22;;
14975;SDS011;7584;60.468;25.126;2022-08-14T09:49:31;5.95;;;3.25;;
14975;SDS011;7584;60.468;25.126;2022-08-14T09:52:04;5.65;;;3.00;;
14975;SDS011;7584;60.468;25.126;2022-08-14T09:57:02;6.80;;;3.38;;
14975;SDS011;7584;60.468;25.126;2022-08-14T09:59:38;4.03;;;2.90;;
14975;SDS011;7584;60.468;25.126;2022-08-14T10:02:03;7.45;;;3.00;;
14975;SDS011;7584;60.468;25.126;2022-08-14T10:04:31;5.95;;;3.20;;
14975;SDS011;7584;60.468;25.126;2022-08-14T10:06:56;5.85;;;3.35;;
14975;SDS011;7584;60.468;25.126;2022-08-14T10:09:22;4.03;;;2.67;;
14975;SDS011;7584;60.468;25.126;2022-08-14T10:11:55;3.35;;;2.83;;
14975;SDS011;7584;60.468;25.126;2022-08-14T10:14:21;3.78;;;3.15;;
14975;SDS011;7584;60.468;25.126;2022-08-14T10:16:53;4.40;;;2.70;;
14975;SDS011;7584;60.468;25.126;2022-08-14T10:19:19;4.10;;;3.20;;
14975;SDS011;7584;60.468;25.126;2022-08-14T10:22:06;3.53;;;3.03;;
14975;SDS011;7584;60.468;25.126;2022-08-14T10:24:38;4.72;;;3.03;;
14975;SDS011;7584;60.468;25.126;2022-08-14T10:27:21;4.40;;;3.08;;
14975;SDS011;7584;60.468;25.126;2022-08-14T10:29:57;4.55;;;2.92;;
14975;SDS011;7584;60.468;25.126;2022-08-14T10:32:25;5.53;;;3.08;;
14975;SDS011;7584;60.468;25.126;2022-08-14T10:34:50;3.28;;;2.60;;
14975;SDS011;7584;60.468;25.126;2022-08-14T10:37:17;3.45;;;2.72;;
14975;SDS011;7584;60.468;25.126;2022-08-14T10:39:43;4.75;;;3.00;;
14975;SDS011;7584;60.468;25.126;2022-08-14T10:42:10;3.40;;;3.10;;
14975;SDS011;7584;60.468;25.126;2022-08-14T10:44:37;6.47;;;2.92;;
14975;SDS011;7584;60.468;25.126;2022-08-14T10:47:02;5.80;;;3.35;;
14975;SDS011;7584;60.468;25.126;2022-08-14T10:49:32;3.55;;;2.83;;
14975;SDS011;7584;60.468;25.126;2022-08-14T10:54:44;3.80;;;2.90;;
14975;SDS011;7584;60.468;25.126;2022-08-14T10:57:11;4.78;;;2.70;;
14975;SDS011;7584;60.468;25.126;2022-08-14T10:59:44;3.13;;;2.70;;
14975;SDS011;7584;60.468;25.126;2022-08-14T11:02:18;5.13;;;2.40;;
14975;SDS011;7584;60.468;25.126;2022-08-14T11:04:55;3.72;;;2.53;;
14975;SDS011;7584;60.468;25.126;2022-08-14T11:07:21;3.70;;;2.55;;
14975;SDS011;7584;60.468;25.126;2022-08-14T11:09:56;2.95;;;2.40;;
14975;SDS011;7584;60.468;25.126;2022-08-14T11:12:26;3.22;;;2.47;;
14975;SDS011;7584;60.468;25.126;2022-08-14T11:14:52;3.20;;;2.22;;
14975;SDS011;7584;60.468;25.126;2022-08-14T11:17:17;3.35;;;2.47;;
14975;SDS011;7584;60.468;25.126;2022-08-14T11:19:42;2.92;;;2.38;;
14975;SDS011;7584;60.468;25.126;2022-08-14T11:22:09;3.08;;;2.28;;
14975;SDS011;7584;60.468;25.126;2022-08-14T11:24:35;3.95;;;2.33;;
14975;SDS011;7584;60.468;25.126;2022-08-14T11:27:02;2.78;;;2.10;;
14975;SDS011;7584;60.468;25.126;2022-08-14T11:29:27;2.13;;;1.92;;
14975;SDS011;7584;60.468;25.126;2022-08-14T11:31:53;2.10;;;1.90;;
14975;SDS011;7584;60.468;25.126;2022-08-14T11:34:19;2.00;;;1.65;;
14975;SDS011;7584;60.468;25.126;2022-08-14T11:36:44;1.90;;;1.70;;
14975;SDS011;7584;60.468;25.126;2022-08-14T11:39:17;2.55;;;1.83;;
14975;SDS011;7584;60.468;25.126;2022-08-14T11:41:42;2.95;;;1.77;;
14975;SDS011;7584;60.468;25.126;2022-08-14T11:44:10;2.45;;;1.60;;
14975;SDS011;7584;60.468;25.126;2022-08-14T11:46:35;2.10;;;1.58;;
14975;SDS011;7584;60.468;25.126;2022-08-14T11:49:00;2.10;;;1.90;;
14975;SDS011;7584;60.468;25.126;2022-08-14T11:51:26;1.73;;;1.63;;
14975;SDS011;7584;60.468;25.126;2022-08-14T11:53:58;2.03;;;1.60;;
14975;SDS011;7584;60.468;25.126;2022-08-14T11:56:25;3.67;;;2.17;;
14975;SDS011;7584;60.468;25.126;2022-08-14T11:58:57;2.45;;;1.67;;
14975;SDS011;7584;60.468;25.126;2022-08-14T12:01:27;3.85;;;1.70;;
14975;SDS011;7584;60.468;25.126;2022-08-14T12:03:53;1.52;;;1.42;;
14975;SDS011;7584;60.468;25.126;2022-08-14T12:06:21;2.00;;;1.50;;
14975;SDS011;7584;60.468;25.126;2022-08-14T12:08:46;1.90;;;1.50;;
14975;SDS011;7584;60.468;25.126;2022-08-14T12:11:18;3.13;;;1.77;;
14975;SDS011;7584;60.468;25.126;2022-08-14T12:13:44;2.50;;;1.95;;
14975;SDS011;7584;60.468;25.126;2022-08-14T12:16:11;1.85;;;1.50;;
14975;SDS011;7584;60.468;25.126;2022-08-14T12:18:41;2.00;;;1.60;;
14975;SDS011;7584;60.468;25.126;2022-08-14T12:21:13;1.50;;;1.40;;
14975;SDS011;7584;60.468;25.126;2022-08-14T12:23:39;1.58;;;1.48;;
14975;SDS011;7584;60.468;25.126;2022-08-14T12:26:06;2.10;;;1.40;;
14975;SDS011;7584;60.468;25.126;2022-08-14T12:28:31;1.38;;;1.25;;
14975;SDS011;7584;60.468;25.126;2022-08-14T12:30:57;3.13;;;1.50;;
14975;SDS011;7584;60.468;25.126;2022-08-14T12:35:53;2.40;;;1.50;;
14975;SDS011;7584;60.468;25.126;2022-08-14T12:38:29;1.75;;;1.65;;
14975;SDS011;7584;60.468;25.126;2022-08-14T12:40:55;1.48;;;1.38;;
14975;SDS011;7584;60.468;25.126;2022-08-14T12:43:20;2.30;;;1.45;;
14975;SDS011;7584;60.468;25.126;2022-08-14T12:45:46;1.63;;;1.20;;
14975;SDS011;7584;60.468;25.126;2022-08-14T12:48:14;3.03;;;1.25;;
14975;SDS011;7584;60.468;25.126;2022-08-14T12:50:40;2.92;;;1.30;;
14975;SDS011;7584;60.468;25.126;2022-08-14T12:53:07;1.73;;;1.20;;
14975;SDS011;7584;60.468;25.126;2022-08-14T12:55:33;7.15;;;1.50;;
14975;SDS011;7584;60.468;25.126;2022-08-14T12:58:00;1.45;;;1.10;;
14975;SDS011;7584;60.468;25.126;2022-08-14T13:00:27;1.85;;;1.10;;
14975;SDS011;7584;60.468;25.126;2022-08-14T13:02:53;1.38;;;1.10;;
14975;SDS011;7584;60.468;25.126;2022-08-14T13:05:28;2.00;;;0.95;;
14975;SDS011;7584;60.468;25.126;2022-08-14T13:07:54;1.55;;;0.98;;
14975;SDS011;7584;60.468;25.126;2022-08-14T13:10:21;1.90;;;0.90;;
14975;SDS011;7584;60.468;25.126;2022-08-14T13:12:47;1.75;;;0.98;;
14975;SDS011;7584;60.468;25.126;2022-08-14T13:15:13;2.80;;;1.02;;
14975;SDS011;7584;60.468;25.126;2022-08-14T13:17:40;2.55;;;1.08;;
14975;SDS011;7584;60.468;25.126;2022-08-14T13:20:06;1.48;;;0.95;;
14975;SDS011;7584;60.468;25.126;2022-08-14T13:22:34;2.28;;;1.10;;
14975;SDS011;7584;60.468;25.126;2022-08-14T13:25:01;4.07;;;1.00;;
14975;SDS011;7584;60.468;25.126;2022-08-14T13:27:26;1.00;;;0.90;;
14975;SDS011;7584;60.468;25.126;2022-08-14T13:29:54;1.58;;;0.73;;
14975;SDS011;7584;60.468;25.126;2022-08-14T13:32:20;1.60;;;0.77;;
14975;SDS011;7584;60.468;25.126;2022-08-14T13:34:49;1.10;;;1.00;;
14975;SDS011;7584;60.468;25.126;2022-08-14T13:37:15;0.85;;;0.85;;
14975;SDS011;7584;60.468;25.126;2022-08-14T13:39:44;1.58;;;1.00;;
14975;SDS011;7584;60.468;25.126;2022-08-14T13:42:10;1.20;;;0.80;;
14975;SDS011;7584;60.468;25.126;2022-08-14T13:44:38;1.50;;;1.00;;
14975;SDS011;7584;60.468;25.126;2022-08-14T13:47:04;1.38;;;0.70;;
14975;SDS011;7584;60.468;25.126;2022-08-14T13:49:31;1.77;;;1.20;;
14975;SDS011;7584;60.468;25.126;2022-08-14T13:51:56;1.33;;;0.90;;
14975;SDS011;7584;60.468;25.126;2022-08-14T13:54:22;1.92;;;0.80;;
14975;SDS011;7584;60.468;25.126;2022-08-14T13:56:49;1.08;;;0.70;;
14975;SDS011;7584;60.468;25.126;2022-08-14T13:59:15;1.20;;;0.90;;
14975;SDS011;7584;60.468;25.126;2022-08-14T14:01:41;1.90;;;0.77;;
14975;SDS011;7584;60.468;25.126;2022-08-14T14:04:13;1.85;;;0.93;;
14975;SDS011;7584;60.468;25.126;2022-08-14T14:06:39;2.92;;;1.15;;
14975;SDS011;7584;60.468;25.126;2022-08-14T14:09:05;1.02;;;0.93;;
14975;SDS011;7584;60.468;25.126;2022-08-14T14:11:34;0.95;;;0.70;;
14975;SDS011;7584;60.468;25.126;2022-08-14T14:13:59;2.15;;;1.10;;
14975;SDS011;7584;60.468;25.126;2022-08-14T14:16:25;3.80;;;1.23;;
14975;SDS011;7584;60.468;25.126;2022-08-14T14:18:51;3.58;;;0.90;;
14975;SDS011;7584;60.468;25.126;2022-08-14T14:21:20;3.38;;;1.00;;
14975;SDS011;7584;60.468;25.126;2022-08-14T14:23:45;1.35;;;0.98;;
14975;SDS011;7584;60.468;25.126;2022-08-14T14:26:15;0.82;;;0.80;;
14975;SDS011;7584;60.468;25.126;2022-08-14T14:28:40;1.45;;;0.80;;
14975;SDS011;7584;60.468;25.126;2022-08-14T14:31:06;1.05;;;0.85;;
14975;SDS011;7584;60.468;25.126;2022-08-14T14:33:32;1.85;;;1.05;;
14975;SDS011;7584;60.468;25.126;2022-08-14T14:35:58;0.93;;;0.82;;
14975;SDS011;7584;60.468;25.126;2022-08-14T14:38:25;1.48;;;1.10;;
14975;SDS011;7584;60.468;25.126;2022-08-14T14:40:52;1.83;;;1.10;;
14975;SDS011;7584;60.468;25.126;2022-08-14T14:43:19;1.48;;;0.73;;
14975;SDS011;7584;60.468;25.126;2022-08-14T14:45:44;1.23;;;0.90;;
14975;SDS011;7584;60.468;25.126;2022-08-14T14:48:13;0.90;;;0.60;;
14975;SDS011;7584;60.468;25.126;2022-08-14T14:50:38;1.88;;;0.63;;
14975;SDS011;7584;60.468;25.126;2022-08-14T14:53:04;1.10;;;0.73;;
14975;SDS011;7584;60.468;25.126;2022-08-14T14:55:30;1.20;;;0.80;;
14975;SDS011;7584;60.468;25.126;2022-08-14T14:57:55;1.27;;;0.90;;
14975;SDS011;7584;60.468;25.126;2022-08-14T15:00:22;3.47;;;1.00;;
14975;SDS011;7584;60.468;25.126;2022-08-14T15:02:48;1.30;;;0.82;;
14975;SDS011;7584;60.468;25.126;2022-08-14T15:05:15;2.78;;;1.00;;